createdAt,value
2019-03-23T00:01:11.698Z,98706.69
2019-03-23T00:03:41.133Z,98705.30
2019-03-23T00:06:10.563Z,98704.53
2019-03-23T00:08:40.013Z,98706.61
2019-03-23T00:11:09.530Z,98701.23
2019-03-23T00:13:38.991Z,98694.09
2019-03-23T00:16:08.538Z,98700.67
2019-03-23T00:18:37.970Z,98701.53
2019-03-23T00:21:07.444Z,98695.69
2019-03-23T00:23:36.793Z,98697.09
2019-03-23T00:26:06.347Z,98697.66
2019-03-23T00:28:35.818Z,98701.12
2019-03-23T00:31:05.341Z,98698.73
2019-03-23T00:33:34.707Z,98699.67
2019-03-23T00:36:04.232Z,98691.64
2019-03-23T00:38:36.704Z,98697.02
2019-03-23T00:41:06.179Z,98698.08
2019-03-23T00:43:35.796Z,98691.26
2019-03-23T00:46:06.296Z,98686.14
2019-03-23T00:48:35.582Z,98684.03
2019-03-23T00:51:06.717Z,98687.17
2019-03-23T00:53:36.123Z,98686.39
2019-03-23T00:56:05.517Z,98683.83
2019-03-23T00:58:35.037Z,98689.41
2019-03-23T01:01:04.548Z,98682.83
2019-03-23T01:03:34.146Z,98686.90
2019-03-23T01:06:03.677Z,98685.59
2019-03-23T01:08:33.132Z,98679.95
2019-03-23T01:11:02.468Z,98684.30
2019-03-23T01:13:31.826Z,98678.00
2019-03-23T01:16:01.483Z,98675.81
2019-03-23T01:18:30.838Z,98674.42
2019-03-23T01:21:00.125Z,98674.51
2019-03-23T01:23:29.635Z,98672.03
2019-03-23T01:25:59.099Z,98668.70
2019-03-23T01:28:28.430Z,98665.13
2019-03-23T01:30:57.796Z,98668.98
2019-03-23T01:33:27.203Z,98661.11
2019-03-23T01:35:56.642Z,98662.94
2019-03-23T01:38:26.183Z,98666.96
2019-03-23T01:40:55.599Z,98667.61
2019-03-23T01:43:25.040Z,98664.77
2019-03-23T01:45:54.356Z,98666.84
2019-03-23T01:48:25.269Z,98657.17
2019-03-23T01:50:54.612Z,98657.57
2019-03-23T01:53:23.914Z,98651.57
2019-03-23T01:55:53.377Z,98653.43
2019-03-23T01:58:24.814Z,98647.75
2019-03-23T02:00:54.186Z,98641.09
2019-03-23T02:03:23.691Z,98646.94
2019-03-23T02:05:53.200Z,98640.64
2019-03-23T02:08:22.509Z,98643.80
2019-03-23T02:10:51.815Z,98639.95
2019-03-23T02:13:21.096Z,98638.84
2019-03-23T02:15:50.480Z,98641.94
2019-03-23T02:18:19.909Z,98639.78
2019-03-23T02:20:49.369Z,98636.90
2019-03-23T02:23:18.739Z,98637.34
2019-03-23T02:25:48.074Z,98636.94
2019-03-23T02:28:17.454Z,98638.23
2019-03-23T02:30:46.798Z,98641.52
2019-03-23T02:33:16.116Z,98633.16
2019-03-23T02:35:45.508Z,98635.80
2019-03-23T02:38:14.866Z,98632.14
2019-03-23T02:40:44.411Z,98636.97
2019-03-23T02:43:13.813Z,98637.13
2019-03-23T02:45:43.202Z,98635.38
2019-03-23T02:48:14.688Z,98632.45
2019-03-23T02:50:44.151Z,98629.84
2019-03-23T02:53:14.720Z,98633.83
2019-03-23T02:55:44.150Z,98634.87
2019-03-23T02:58:13.643Z,98637.91
2019-03-23T03:00:43.177Z,98631.13
2019-03-23T03:03:12.764Z,98636.25
2019-03-23T03:05:42.349Z,98629.45
2019-03-23T03:08:11.659Z,98632.20
2019-03-23T03:10:41.939Z,98630.34
2019-03-23T03:13:11.300Z,98632.98
2019-03-23T03:15:40.738Z,98631.95
2019-03-23T03:18:10.135Z,98628.39
2019-03-23T03:20:39.983Z,98631.53
2019-03-23T03:23:09.313Z,98635.47
2019-03-23T03:25:38.763Z,98633.17
2019-03-23T03:28:08.161Z,98637.06
2019-03-23T03:30:37.442Z,98632.66
2019-03-23T03:33:06.892Z,98638.06
2019-03-23T03:35:36.410Z,98639.43
2019-03-23T03:38:05.954Z,98633.84
2019-03-23T03:40:35.349Z,98639.91
2019-03-23T03:43:05.153Z,98645.21
2019-03-23T03:45:34.419Z,98637.80
2019-03-23T03:48:05.584Z,98643.51
2019-03-23T03:50:35.089Z,98639.51
2019-03-23T03:53:04.448Z,98636.20
2019-03-23T03:55:33.816Z,98644.25
2019-03-23T03:58:03.163Z,98640.50
2019-03-23T04:00:32.572Z,98639.24
2019-03-23T04:03:01.910Z,98650.20
2019-03-23T04:05:31.314Z,98647.06
2019-03-23T04:08:11.255Z,98651.02
2019-03-23T04:10:31.845Z,98652.25
2019-03-23T04:13:01.426Z,98651.02
2019-03-23T04:15:30.750Z,98659.48
2019-03-23T04:18:00.194Z,98666.86
2019-03-23T04:20:29.726Z,98661.33
2019-03-23T04:22:59.200Z,98666.33
2019-03-23T04:25:28.601Z,98667.45
2019-03-23T04:27:58.100Z,98659.50
2019-03-23T04:30:27.589Z,98664.61
2019-03-23T04:32:57.032Z,98664.24
2019-03-23T04:35:26.354Z,98663.32
2019-03-23T04:37:55.722Z,98666.43
2019-03-23T04:40:25.154Z,98659.91
2019-03-23T04:42:54.550Z,98660.45
2019-03-23T04:45:23.956Z,98660.53
2019-03-23T04:47:53.443Z,98659.67
2019-03-23T04:50:22.822Z,98657.93
2019-03-23T04:52:52.449Z,98658.34
2019-03-23T04:55:21.874Z,98658.78
2019-03-23T04:57:51.313Z,98661.14
2019-03-23T05:00:21.578Z,98660.29
2019-03-23T05:02:53.889Z,98663.33
2019-03-23T05:05:23.197Z,98668.03
2019-03-23T05:07:52.575Z,98659.37
2019-03-23T05:10:22.007Z,98666.73
2019-03-23T05:12:51.361Z,98672.47
2019-03-23T05:15:20.930Z,98669.30
2019-03-23T05:17:50.316Z,98667.08
2019-03-23T05:20:37.689Z,98666.59
2019-03-23T05:23:07.159Z,98662.33
2019-03-23T05:25:36.588Z,98673.12
2019-03-23T05:28:05.899Z,98671.51
2019-03-23T05:30:35.288Z,98674.58
2019-03-23T05:33:04.793Z,98671.82
2019-03-23T05:35:34.302Z,98674.11
2019-03-23T05:38:04.501Z,98676.13
2019-03-23T05:40:33.965Z,98681.76
2019-03-23T05:43:03.353Z,98680.02
2019-03-23T05:45:32.836Z,98676.36
2019-03-23T05:48:02.312Z,98673.63
2019-03-23T05:50:31.594Z,98670.04
2019-03-23T05:53:02.023Z,98673.61
2019-03-23T05:55:31.339Z,98672.95
2019-03-23T05:58:00.730Z,98675.23
2019-03-23T06:00:30.024Z,98682.69
2019-03-23T06:03:00.453Z,98676.71
2019-03-23T06:05:29.787Z,98679.82
2019-03-23T06:08:00.152Z,98680.37
2019-03-23T06:10:30.591Z,98687.81
2019-03-23T06:13:03.114Z,98688.27
2019-03-23T06:15:32.566Z,98676.98
2019-03-23T06:18:01.945Z,98680.32
2019-03-23T06:20:31.620Z,98682.70
2019-03-23T06:23:01.240Z,98677.94
2019-03-23T06:25:30.856Z,98674.34
2019-03-23T06:28:00.277Z,98676.27
2019-03-23T06:30:29.658Z,98682.00
2019-03-23T06:32:59.458Z,98685.70
2019-03-23T06:35:28.967Z,98682.30
2019-03-23T06:37:58.587Z,98676.93
2019-03-23T06:40:28.040Z,98678.73
2019-03-23T06:42:59.839Z,98676.14
2019-03-23T06:45:28.598Z,98675.63
2019-03-23T06:48:00.487Z,98675.10
2019-03-23T06:50:29.805Z,98676.47
2019-03-23T06:52:59.296Z,98679.65
2019-03-23T06:55:28.690Z,98679.66
2019-03-23T06:57:58.201Z,98686.53
2019-03-23T07:00:27.630Z,98687.77
2019-03-23T07:02:57.937Z,98688.54
2019-03-23T07:05:27.385Z,98688.25
2019-03-23T07:07:56.804Z,98685.86
2019-03-23T07:10:26.216Z,98679.64
2019-03-23T07:12:55.559Z,98683.94
2019-03-23T07:15:24.934Z,98679.73
2019-03-23T07:18:04.036Z,98683.28
2019-03-23T07:20:34.749Z,98682.37
2019-03-23T07:23:04.147Z,98689.22
2019-03-23T07:25:33.492Z,98692.20
2019-03-23T07:28:03.566Z,98688.19
2019-03-23T07:30:36.290Z,98682.11
2019-03-23T07:33:06.056Z,98688.00
2019-03-23T07:35:35.868Z,98691.41
2019-03-23T07:38:06.437Z,98685.13
2019-03-23T07:40:36.081Z,98688.23
2019-03-23T07:43:05.604Z,98688.56
2019-03-23T07:45:35.056Z,98688.08
2019-03-23T07:48:05.164Z,98687.52
2019-03-23T07:50:34.592Z,98690.33
2019-03-23T07:53:04.087Z,98685.95
2019-03-23T07:55:33.564Z,98689.04
2019-03-23T07:58:03.184Z,98687.64
2019-03-23T08:00:32.918Z,98687.55
2019-03-23T08:03:02.351Z,98696.55
2019-03-23T08:05:31.922Z,98695.66
2019-03-23T08:08:05.713Z,98693.75
2019-03-23T08:10:36.836Z,98687.17
2019-03-23T08:13:06.428Z,98690.22
2019-03-23T08:15:36.030Z,98691.12
2019-03-23T08:18:05.620Z,98700.50
2019-03-23T08:20:35.227Z,98697.98
2019-03-23T08:23:04.746Z,98696.64
2019-03-23T08:25:34.643Z,98698.01
2019-03-23T08:28:04.516Z,98689.86
2019-03-23T08:30:34.896Z,98686.59
2019-03-23T08:33:05.373Z,98690.13
2019-03-23T08:35:36.402Z,98689.88
2019-03-23T08:38:08.446Z,98688.30
2019-03-23T08:40:40.230Z,98695.35
2019-03-23T08:43:11.298Z,98690.02
2019-03-23T08:45:42.051Z,98689.20
2019-03-23T08:48:13.295Z,98691.15
2019-03-23T08:50:43.020Z,98687.78
2019-03-23T08:53:12.566Z,98684.63
2019-03-23T08:55:42.014Z,98679.20
2019-03-23T08:58:11.527Z,98680.02
2019-03-23T09:00:40.978Z,98672.33
2019-03-23T09:03:10.570Z,98677.59
2019-03-23T09:05:40.241Z,98674.52
2019-03-23T09:08:11.297Z,98677.61
2019-03-23T09:10:40.889Z,98665.33
2019-03-23T09:13:10.605Z,98679.81
2019-03-23T09:15:40.284Z,98670.83
2019-03-23T09:18:11.273Z,98674.10
2019-03-23T09:20:40.875Z,98669.55
2019-03-23T09:23:10.839Z,98670.69
2019-03-23T09:25:42.399Z,98667.70
2019-03-23T09:28:11.929Z,98662.19
2019-03-23T09:30:41.597Z,98658.84
2019-03-23T09:33:13.115Z,98666.69
2019-03-23T09:35:42.516Z,98658.97
2019-03-23T09:38:11.922Z,98659.67
2019-03-23T09:40:41.566Z,98662.38
2019-03-23T09:43:10.967Z,98660.45
2019-03-23T09:45:40.515Z,98658.52
2019-03-23T09:48:10.128Z,98657.16
2019-03-23T09:50:39.736Z,98650.09
2019-03-23T09:53:09.093Z,98654.08
2019-03-23T09:55:38.675Z,98652.83
2019-03-23T09:58:08.263Z,98643.20
2019-03-23T10:00:37.696Z,98640.44
2019-03-23T10:03:07.604Z,98638.90
2019-03-23T10:05:36.979Z,98636.69
2019-03-23T10:08:06.595Z,98637.16
2019-03-23T10:10:36.172Z,98639.69
2019-03-23T10:13:09.111Z,98630.88
2019-03-23T10:15:39.051Z,98630.08
2019-03-23T10:18:11.058Z,98624.05
2019-03-23T10:20:40.496Z,98627.11
2019-03-23T10:23:09.935Z,98621.68
2019-03-23T10:25:39.326Z,98626.05
2019-03-23T10:28:08.678Z,98626.47
2019-03-23T10:30:38.281Z,98628.32
2019-03-23T10:33:09.984Z,98630.94
2019-03-23T10:35:39.438Z,98623.63
2019-03-23T10:38:08.764Z,98628.10
2019-03-23T10:40:38.214Z,98627.97
2019-03-23T10:43:09.700Z,98625.62
2019-03-23T10:45:44.070Z,98629.08
2019-03-23T10:48:13.168Z,98624.34
2019-03-23T10:50:42.686Z,98619.59
2019-03-23T10:53:12.292Z,98615.82
2019-03-23T10:55:41.816Z,98612.95
2019-03-23T10:58:11.689Z,98616.47
2019-03-23T11:00:41.336Z,98604.28
2019-03-23T11:03:10.836Z,98598.48
2019-03-23T11:05:40.178Z,98600.11
2019-03-23T11:08:09.742Z,98609.41
2019-03-23T11:10:41.956Z,98607.48
2019-03-23T11:13:10.552Z,98612.28
2019-03-23T11:15:42.082Z,98604.23
2019-03-23T11:18:11.559Z,98606.22
2019-03-23T11:20:40.996Z,98599.55
2019-03-23T11:23:10.415Z,98601.95
2019-03-23T11:25:41.353Z,98596.09
2019-03-23T11:28:10.864Z,98596.29
2019-03-23T11:30:40.630Z,98595.92
2019-03-23T11:33:10.133Z,98588.95
2019-03-23T11:35:39.542Z,98591.05
2019-03-23T11:38:09.040Z,98589.64
2019-03-23T11:40:38.564Z,98584.51
2019-03-23T11:43:08.013Z,98580.84
2019-03-23T11:45:37.438Z,98577.21
2019-03-23T11:48:07.663Z,98571.04
2019-03-23T11:50:37.215Z,98576.96
2019-03-23T11:53:07.108Z,98571.83
2019-03-23T11:55:36.722Z,98568.03
2019-03-23T11:58:06.163Z,98565.06
2019-03-23T12:00:35.495Z,98571.51
2019-03-23T12:03:05.142Z,98564.84
2019-03-23T12:05:34.697Z,98559.77
2019-03-23T12:08:04.273Z,98558.02
2019-03-23T12:10:36.501Z,98553.41
2019-03-23T12:13:05.957Z,98549.73
2019-03-23T12:15:35.529Z,98551.65
2019-03-23T12:18:05.081Z,98556.73
2019-03-23T12:20:34.485Z,98549.25
2019-03-23T12:23:04.093Z,98553.59
2019-03-23T12:25:33.596Z,98549.09
2019-03-23T12:28:02.999Z,98537.62
2019-03-23T12:30:32.535Z,98540.02
2019-03-23T12:33:03.784Z,98535.44
2019-03-23T12:35:33.145Z,98531.09
2019-03-23T12:38:02.681Z,98530.78
2019-03-23T12:40:32.304Z,98527.93
2019-03-23T12:43:01.750Z,98532.98
2019-03-23T12:45:31.436Z,98530.00
2019-03-23T12:48:01.229Z,98526.47
2019-03-23T12:50:30.760Z,98530.05
2019-03-23T12:53:00.183Z,98522.14
2019-03-23T12:55:29.618Z,98512.37
2019-03-23T12:57:59.075Z,98515.34
2019-03-23T13:00:28.758Z,98510.03
2019-03-23T13:02:58.151Z,98513.41
2019-03-23T13:05:27.525Z,98517.05
2019-03-23T13:07:57.418Z,98509.21
2019-03-23T13:10:26.817Z,98505.71
2019-03-23T13:12:58.315Z,98501.09
2019-03-23T13:15:27.418Z,98504.11
2019-03-23T13:17:56.888Z,98496.53
2019-03-23T13:20:26.906Z,98489.91
2019-03-23T13:22:56.421Z,98488.92
2019-03-23T13:25:26.807Z,98487.67
2019-03-23T13:27:57.361Z,98483.19
2019-03-23T13:30:27.366Z,98480.82
2019-03-23T13:32:57.550Z,98475.52
2019-03-23T13:35:26.929Z,98470.30
2019-03-23T13:37:58.007Z,98466.18
2019-03-23T13:40:27.472Z,98456.55
2019-03-23T13:42:56.878Z,98460.91
2019-03-23T13:45:26.406Z,98457.84
2019-03-23T13:47:56.429Z,98460.99
2019-03-23T13:50:29.339Z,98462.90
2019-03-23T13:52:59.298Z,98455.89
2019-03-23T13:55:30.592Z,98454.80
2019-03-23T13:58:08.648Z,98452.13
2019-03-23T14:00:38.287Z,98447.87
2019-03-23T14:03:08.135Z,98450.77
2019-03-23T14:05:37.961Z,98452.00
2019-03-23T14:08:11.543Z,98441.32
2019-03-23T14:10:41.054Z,98432.63
2019-03-23T14:13:10.664Z,98437.81
2019-03-23T14:15:41.416Z,98429.31
2019-03-23T14:18:12.067Z,98434.17
2019-03-23T14:20:41.461Z,98425.66
2019-03-23T14:23:11.038Z,98427.97
2019-03-23T14:25:41.389Z,98426.07
2019-03-23T14:28:11.043Z,98420.92
2019-03-23T14:30:41.023Z,98426.53
2019-03-23T14:33:10.681Z,98416.20
2019-03-23T14:35:42.471Z,98415.37
2019-03-23T14:38:12.182Z,98407.41
2019-03-23T14:40:41.671Z,98414.90
2019-03-23T14:43:13.326Z,98411.69
2019-03-23T14:45:43.815Z,98408.41
2019-03-23T14:48:15.431Z,98408.79
2019-03-23T14:50:45.331Z,98408.76
2019-03-23T14:53:15.015Z,98407.77
2019-03-23T14:55:44.697Z,98406.44
2019-03-23T14:58:14.405Z,98405.92
2019-03-23T15:00:46.399Z,98407.50
2019-03-23T15:03:15.977Z,98407.37
2019-03-23T15:05:45.455Z,98406.89
2019-03-23T15:08:15.254Z,98411.19
2019-03-23T15:10:44.904Z,98398.75
2019-03-23T15:13:14.854Z,98398.89
2019-03-23T15:15:46.962Z,98409.01
2019-03-23T15:18:20.240Z,98408.30
2019-03-23T15:20:52.870Z,98406.00
2019-03-23T15:23:23.243Z,98400.03
2019-03-23T15:25:52.687Z,98396.92
2019-03-23T15:28:22.417Z,98393.47
2019-03-23T15:30:54.217Z,98392.14
2019-03-23T15:33:23.914Z,98389.27
2019-03-23T15:35:54.633Z,98397.32
2019-03-23T15:38:24.367Z,98390.59
2019-03-23T15:40:54.415Z,98391.03
2019-03-23T15:43:23.926Z,98391.61
2019-03-23T15:45:53.657Z,98386.96
2019-03-23T15:48:23.416Z,98385.36
2019-03-23T15:50:53.179Z,98388.34
2019-03-23T15:53:23.277Z,98385.23
2019-03-23T15:55:53.325Z,98391.95
2019-03-23T15:58:25.438Z,98390.79
2019-03-23T16:00:55.209Z,98387.70
2019-03-23T16:03:25.109Z,98391.08
2019-03-23T16:05:54.619Z,98379.98
2019-03-23T16:08:24.319Z,98390.67
2019-03-23T16:10:55.201Z,98392.32
2019-03-23T16:13:26.400Z,98393.79
2019-03-23T16:15:57.851Z,98394.14
2019-03-23T16:18:27.355Z,98392.62
2019-03-23T16:20:56.902Z,98389.96
2019-03-23T16:23:26.450Z,98396.93
2019-03-23T16:25:55.916Z,98399.75
2019-03-23T16:28:25.608Z,98394.96
2019-03-23T16:30:56.710Z,98400.59
2019-03-23T16:33:26.121Z,98397.74
2019-03-23T16:35:55.597Z,98399.69
2019-03-23T16:38:25.205Z,98400.84
2019-03-23T16:40:54.791Z,98405.02
2019-03-23T16:43:24.180Z,98402.42
2019-03-23T16:45:54.077Z,98399.83
2019-03-23T16:48:23.515Z,98395.02
2019-03-23T16:50:53.108Z,98394.64
2019-03-23T16:53:22.660Z,98394.34
2019-03-23T16:55:52.127Z,98392.14
2019-03-23T16:58:21.764Z,98393.77
2019-03-23T17:00:51.144Z,98391.89
2019-03-23T17:03:20.640Z,98394.06
2019-03-23T17:05:50.136Z,98389.41
2019-03-23T17:08:19.597Z,98389.22
2019-03-23T17:10:49.145Z,98387.73
2019-03-23T17:13:18.549Z,98392.47
2019-03-23T17:15:48.111Z,98397.59
2019-03-23T17:18:17.656Z,98388.84
2019-03-23T17:20:50.264Z,98392.13
2019-03-23T17:23:19.740Z,98396.97
2019-03-23T17:25:49.258Z,98384.16
2019-03-23T17:28:18.666Z,98396.30
2019-03-23T17:30:48.679Z,98400.95
2019-03-23T17:33:18.154Z,98405.05
2019-03-23T17:35:47.689Z,98412.68
2019-03-23T17:38:17.171Z,98410.19
2019-03-23T17:40:46.637Z,98413.31
2019-03-23T17:43:16.027Z,98412.59
2019-03-23T17:45:45.464Z,98410.31
2019-03-23T17:48:15.010Z,98413.07
2019-03-23T17:50:44.477Z,98418.63
2019-03-23T17:53:13.816Z,98417.89
2019-03-23T17:55:43.247Z,98422.59
2019-03-23T17:58:12.687Z,98421.91
2019-03-23T18:00:42.335Z,98424.84
2019-03-23T18:03:11.956Z,98427.06
2019-03-23T18:05:41.598Z,98433.36
2019-03-23T18:08:11.167Z,98433.44
2019-03-23T18:10:40.800Z,98438.14
2019-03-23T18:13:16.409Z,98434.12
2019-03-23T18:15:41.664Z,98437.87
2019-03-23T18:18:11.190Z,98435.11
2019-03-23T18:20:40.809Z,98445.55
2019-03-23T18:23:10.362Z,98444.52
2019-03-23T18:25:39.910Z,98444.11
2019-03-23T18:28:09.364Z,98448.70
2019-03-23T18:30:41.074Z,98454.86
2019-03-23T18:33:10.709Z,98456.92
2019-03-23T18:35:43.313Z,98456.52
2019-03-23T18:38:12.900Z,98458.94
2019-03-23T18:40:42.894Z,98455.49
2019-03-23T18:43:12.308Z,98459.06
2019-03-23T18:45:41.999Z,98459.88
2019-03-23T18:48:11.585Z,98464.78
2019-03-23T18:50:42.769Z,98468.72
2019-03-23T18:53:15.553Z,98472.44
2019-03-23T18:55:45.274Z,98467.59
2019-03-23T18:58:14.792Z,98471.75
2019-03-23T19:00:44.697Z,98468.45
2019-03-23T19:03:14.278Z,98471.86
2019-03-23T19:05:43.843Z,98473.47
2019-03-23T19:08:13.502Z,98473.56
2019-03-23T19:10:44.175Z,98477.88
2019-03-23T19:13:13.797Z,98483.42
2019-03-23T19:15:43.336Z,98479.02
2019-03-23T19:18:19.011Z,98474.81
2019-03-23T19:20:48.698Z,98473.03
2019-03-23T19:23:18.611Z,98479.78
2019-03-23T19:25:48.219Z,98487.08
2019-03-23T19:28:17.873Z,98485.55
2019-03-23T19:30:48.634Z,98488.76
2019-03-23T19:33:20.638Z,98492.30
2019-03-23T19:35:50.099Z,98503.15
2019-03-23T19:38:20.972Z,98500.16
2019-03-23T19:40:50.615Z,98493.20
2019-03-23T19:43:20.278Z,98502.57
2019-03-23T19:45:49.595Z,98496.01
2019-03-23T19:48:19.028Z,98493.97
2019-03-23T19:50:48.514Z,98497.34
2019-03-23T19:53:18.082Z,98500.19
2019-03-23T19:55:48.698Z,98500.75
2019-03-23T19:58:18.433Z,98504.22
2019-03-23T20:00:51.217Z,98506.00
2019-03-23T20:03:20.986Z,98505.89
2019-03-23T20:05:51.448Z,98501.11
2019-03-23T20:08:20.950Z,98503.31
2019-03-23T20:10:51.411Z,98509.35
2019-03-23T20:13:23.089Z,98511.53
2019-03-23T20:15:52.958Z,98501.77
2019-03-23T20:18:24.558Z,98507.25
2019-03-23T20:20:54.018Z,98501.13
2019-03-23T20:23:24.595Z,98496.61
2019-03-23T20:25:54.156Z,98494.57
2019-03-23T20:28:23.681Z,98495.91
2019-03-23T20:30:54.205Z,98496.88
2019-03-23T20:33:23.569Z,98497.42
2019-03-23T20:35:52.966Z,98500.58
2019-03-23T20:38:22.428Z,98503.86
2019-03-23T20:40:51.911Z,98502.30
2019-03-23T20:43:21.282Z,98497.70
2019-03-23T20:45:50.816Z,98496.08
2019-03-23T20:48:20.325Z,98499.01
2019-03-23T20:50:51.078Z,98499.08
2019-03-23T20:53:21.133Z,98495.55
2019-03-23T20:55:52.289Z,98497.20
2019-03-23T20:58:21.659Z,98495.83
2019-03-23T21:00:51.303Z,98497.06
2019-03-23T21:03:20.806Z,98496.06
2019-03-23T21:05:50.176Z,98499.67
2019-03-23T21:08:19.648Z,98500.39
2019-03-23T21:10:49.261Z,98499.62
2019-03-23T21:13:18.885Z,98494.56
2019-03-23T21:15:48.357Z,98497.18
2019-03-23T21:18:17.891Z,98499.41
2019-03-23T21:20:48.401Z,98500.86
2019-03-23T21:23:17.824Z,98500.73
2019-03-23T21:25:47.348Z,98503.74
2019-03-23T21:28:16.869Z,98499.22
2019-03-23T21:30:46.429Z,98498.23
2019-03-23T21:33:15.856Z,98478.86
2019-03-23T21:35:45.563Z,98495.94
2019-03-23T21:38:18.578Z,98490.17
2019-03-23T21:40:48.379Z,98494.80
2019-03-23T21:43:17.807Z,98485.50
2019-03-23T21:45:47.237Z,98485.75
2019-03-23T21:48:20.731Z,98479.23
2019-03-23T21:50:50.389Z,98485.88
2019-03-23T21:53:20.675Z,98483.55
2019-03-23T21:55:50.187Z,98480.65
2019-03-23T21:58:19.664Z,98476.73
2019-03-23T22:00:49.102Z,98475.95
2019-03-23T22:03:18.668Z,98474.32
2019-03-23T22:05:48.182Z,98474.56
2019-03-23T22:08:17.797Z,98481.19
2019-03-23T22:10:47.254Z,98482.48
2019-03-23T22:13:19.841Z,98479.58
2019-03-23T22:15:52.535Z,98477.25
2019-03-23T22:18:21.987Z,98478.48
2019-03-23T22:20:51.538Z,98481.80
2019-03-23T22:23:21.089Z,98480.54
2019-03-23T22:25:50.708Z,98488.00
2019-03-23T22:28:21.092Z,98490.78
2019-03-23T22:30:50.734Z,98492.91
2019-03-23T22:33:22.101Z,98489.08
2019-03-23T22:35:51.714Z,98487.47
2019-03-23T22:38:22.354Z,98486.52
2019-03-23T22:40:51.973Z,98486.98
2019-03-23T22:43:22.404Z,98485.16
2019-03-23T22:45:51.895Z,98485.36
2019-03-23T22:48:21.416Z,98478.38
2019-03-23T22:50:50.858Z,98479.09
2019-03-23T22:53:20.422Z,98481.20
2019-03-23T22:55:49.839Z,98482.73
2019-03-23T22:58:19.332Z,98479.91
2019-03-23T23:00:49.019Z,98473.95
2019-03-23T23:03:18.350Z,98469.58
2019-03-23T23:05:48.114Z,98467.36
2019-03-23T23:08:17.504Z,98469.45
2019-03-23T23:10:46.914Z,98469.52
2019-03-23T23:13:16.569Z,98466.05
2019-03-23T23:15:45.886Z,98462.59
2019-03-23T23:18:15.187Z,98456.98
2019-03-23T23:20:44.534Z,98460.53
2019-03-23T23:23:13.792Z,98455.97
2019-03-23T23:25:43.217Z,98458.17
2019-03-23T23:28:12.662Z,98456.53
2019-03-23T23:30:44.961Z,98460.22
2019-03-23T23:33:15.866Z,98452.78
2019-03-23T23:35:45.348Z,98449.84
2019-03-23T23:38:15.204Z,98451.36
2019-03-23T23:40:44.582Z,98449.98
2019-03-23T23:43:15.391Z,98450.75
2019-03-23T23:45:45.913Z,98449.53
2019-03-23T23:48:15.313Z,98454.19
2019-03-23T23:50:44.645Z,98446.75
2019-03-23T23:53:14.212Z,98452.52
2019-03-23T23:55:43.598Z,98454.70
2019-03-23T23:58:13.005Z,98448.75
